createdAt,value
2019-02-21T00:01:23.701Z,88.60
2019-02-21T00:03:52.145Z,89.20
2019-02-21T00:06:20.593Z,88.50
2019-02-21T00:08:49.032Z,88.40
2019-02-21T00:11:17.634Z,88.60
2019-02-21T00:13:46.134Z,88.80
2019-02-21T00:16:14.645Z,88.70
2019-02-21T00:18:43.073Z,88.70
2019-02-21T00:21:11.666Z,88.60
2019-02-21T00:23:40.087Z,89.20
2019-02-21T00:26:08.973Z,89.60
2019-02-21T00:28:37.404Z,89.50
2019-02-21T00:31:05.929Z,89.80
2019-02-21T00:33:34.362Z,89.90
2019-02-21T00:36:02.825Z,89.70
2019-02-21T00:38:31.286Z,89.50
2019-02-21T00:41:00.050Z,89.50
2019-02-21T00:43:28.494Z,89.30
2019-02-21T00:45:56.957Z,89.60
2019-02-21T00:48:25.393Z,88.70
2019-02-21T00:50:54.183Z,89.00
2019-02-21T00:53:22.613Z,89.60
2019-02-21T00:55:51.305Z,90.20
2019-02-21T00:58:20.035Z,90.20
2019-02-21T01:00:48.466Z,90.20
2019-02-21T01:03:16.931Z,90.10
2019-02-21T01:05:45.489Z,89.90
2019-02-21T01:08:13.986Z,89.80
2019-02-21T01:10:42.429Z,89.60
2019-02-21T01:13:11.235Z,89.60
2019-02-21T01:15:39.733Z,89.70
2019-02-21T01:18:08.201Z,89.50
2019-02-21T01:20:36.984Z,89.80
2019-02-21T01:23:05.412Z,88.80
2019-02-21T01:25:33.857Z,89.40
2019-02-21T01:28:21.653Z,90.00
2019-02-21T01:30:57.107Z,90.10
2019-02-21T01:33:20.590Z,90.10
2019-02-21T01:35:49.588Z,90.30
2019-02-21T01:38:18.266Z,90.50
2019-02-21T01:40:46.785Z,90.50
2019-02-21T01:43:15.237Z,90.70
2019-02-21T01:45:43.741Z,90.60
2019-02-21T01:48:12.181Z,90.40
2019-02-21T01:50:40.881Z,90.30
2019-02-21T01:53:09.324Z,90.20
2019-02-21T01:55:37.765Z,90.30
2019-02-21T01:58:06.205Z,90.40
2019-02-21T02:00:34.632Z,90.50
2019-02-21T02:03:03.397Z,90.50
2019-02-21T02:05:32.181Z,90.40
2019-02-21T02:08:00.613Z,90.40
2019-02-21T02:10:29.579Z,90.40
2019-02-21T02:12:59.462Z,90.40
2019-02-21T02:15:30.800Z,90.40
2019-02-21T02:18:06.896Z,90.30
2019-02-21T02:20:35.353Z,90.30
2019-02-21T02:23:03.785Z,90.20
2019-02-21T02:25:32.230Z,90.30
2019-02-21T02:28:00.673Z,90.30
2019-02-21T02:30:29.109Z,90.40
2019-02-21T02:32:57.621Z,90.30
2019-02-21T02:35:26.049Z,90.30
2019-02-21T02:37:54.959Z,90.30
2019-02-21T02:40:23.633Z,90.30
2019-02-21T02:42:52.084Z,90.30
2019-02-21T02:45:20.524Z,90.30
2019-02-21T02:47:49.035Z,90.50
2019-02-21T02:50:17.460Z,90.60
2019-02-21T02:52:45.908Z,90.70
2019-02-21T02:55:14.436Z,90.50
2019-02-21T02:57:42.877Z,90.50
2019-02-21T03:00:14.469Z,90.40
2019-02-21T03:02:43.241Z,90.40
2019-02-21T03:05:11.680Z,90.50
2019-02-21T03:07:40.506Z,90.40
2019-02-21T03:10:11.372Z,90.40
2019-02-21T03:12:39.814Z,90.60
2019-02-21T03:15:08.680Z,90.70
2019-02-21T03:17:37.126Z,90.70
2019-02-21T03:20:07.997Z,90.60
2019-02-21T03:22:36.720Z,90.50
2019-02-21T03:25:07.089Z,90.40
2019-02-21T03:27:35.532Z,90.40
2019-02-21T03:30:05.445Z,90.50
2019-02-21T03:32:33.955Z,90.40
2019-02-21T03:35:02.396Z,90.40
2019-02-21T03:37:30.833Z,90.30
2019-02-21T03:39:59.531Z,90.30
2019-02-21T03:42:27.966Z,90.30
2019-02-21T03:44:56.436Z,90.20
2019-02-21T03:47:24.896Z,90.20
2019-02-21T03:49:53.327Z,90.20
2019-02-21T03:52:21.848Z,90.30
2019-02-21T03:54:50.578Z,90.40
2019-02-21T03:57:19.077Z,90.30
2019-02-21T03:59:47.654Z,90.20
2019-02-21T04:02:16.157Z,90.40
2019-02-21T04:04:44.769Z,90.30
2019-02-21T04:07:13.203Z,90.40
2019-02-21T04:09:41.660Z,90.50
2019-02-21T04:12:10.088Z,90.40
2019-02-21T04:14:38.535Z,90.40
2019-02-21T04:17:06.961Z,90.40
2019-02-21T04:19:35.792Z,90.40
2019-02-21T04:22:04.226Z,90.60
2019-02-21T04:24:32.677Z,90.70
2019-02-21T04:27:01.147Z,90.60
2019-02-21T04:29:31.520Z,90.50
2019-02-21T04:31:59.941Z,90.40
2019-02-21T04:34:28.389Z,90.60
2019-02-21T04:36:56.816Z,90.60
2019-02-21T04:39:25.334Z,90.70
2019-02-21T04:41:53.913Z,90.60
2019-02-21T04:44:22.357Z,90.70
2019-02-21T04:46:50.789Z,90.70
2019-02-21T04:49:19.236Z,90.70
2019-02-21T04:51:47.669Z,90.60
2019-02-21T04:54:16.381Z,90.60
2019-02-21T04:56:44.812Z,90.60
2019-02-21T04:59:13.267Z,90.50
2019-02-21T05:01:41.689Z,90.50
2019-02-21T05:04:11.007Z,90.40
2019-02-21T05:06:39.500Z,90.40
2019-02-21T05:09:08.117Z,90.40
2019-02-21T05:11:36.879Z,90.40
2019-02-21T05:14:05.671Z,90.40
2019-02-21T05:16:34.170Z,90.30
2019-02-21T05:19:02.638Z,90.40
2019-02-21T05:21:31.472Z,90.40
2019-02-21T05:23:59.930Z,90.50
2019-02-21T05:26:30.071Z,90.50
2019-02-21T05:28:59.701Z,90.40
2019-02-21T05:31:29.775Z,90.40
2019-02-21T05:33:59.860Z,90.50
2019-02-21T05:36:35.675Z,90.70
2019-02-21T05:39:06.777Z,90.60
2019-02-21T05:41:42.854Z,90.70
2019-02-21T05:44:33.507Z,90.60
2019-02-21T05:47:19.580Z,90.50
2019-02-21T05:50:05.925Z,90.40
2019-02-21T05:52:41.835Z,90.50
2019-02-21T05:55:11.926Z,90.60
2019-02-21T05:57:51.144Z,90.60
2019-02-21T06:00:36.797Z,90.50
2019-02-21T06:03:09.478Z,90.50
2019-02-21T06:05:39.558Z,90.60
2019-02-21T06:08:09.637Z,90.50
2019-02-21T06:10:55.934Z,90.80
2019-02-21T06:13:28.806Z,90.40
2019-02-21T06:16:02.638Z,90.50
2019-02-21T06:18:33.053Z,90.50
2019-02-21T06:21:19.297Z,90.70
2019-02-21T06:23:55.329Z,90.60
2019-02-21T06:26:28.261Z,90.50
2019-02-21T06:29:01.044Z,90.60
2019-02-21T06:31:29.489Z,90.80
2019-02-21T06:33:57.932Z,90.60
2019-02-21T06:36:26.380Z,90.60
2019-02-21T06:38:57.753Z,90.60
2019-02-21T06:41:26.202Z,90.50
2019-02-21T06:43:56.742Z,90.70
2019-02-21T06:46:24.814Z,90.70
2019-02-21T06:48:53.317Z,90.70
2019-02-21T06:51:22.007Z,90.60
2019-02-21T06:53:53.017Z,90.80
2019-02-21T06:56:20.605Z,90.60
2019-02-21T06:58:49.025Z,90.80
2019-02-21T07:01:26.385Z,90.80
2019-02-21T07:03:47.640Z,90.70
2019-02-21T07:06:16.092Z,90.60
2019-02-21T07:08:44.577Z,90.70
2019-02-21T07:11:13.276Z,90.80
2019-02-21T07:13:41.706Z,90.70
2019-02-21T07:16:10.148Z,90.60
2019-02-21T07:18:40.669Z,90.50
2019-02-21T07:21:09.065Z,90.50
2019-02-21T07:23:43.514Z,91.10
2019-02-21T07:26:07.661Z,90.60
2019-02-21T07:28:36.100Z,90.70
2019-02-21T07:31:04.545Z,90.60
2019-02-21T07:33:32.993Z,90.50
2019-02-21T07:36:01.498Z,90.50
2019-02-21T07:38:29.961Z,90.70
2019-02-21T07:40:58.872Z,90.60
2019-02-21T07:43:27.481Z,90.80
2019-02-21T07:45:55.909Z,90.60
2019-02-21T07:48:24.374Z,90.70
2019-02-21T07:50:52.796Z,90.50
2019-02-21T07:53:21.245Z,90.70
2019-02-21T07:55:49.687Z,90.30
2019-02-21T07:58:18.199Z,90.40
2019-02-21T08:00:46.628Z,90.30
2019-02-21T08:03:15.077Z,90.20
2019-02-21T08:05:43.505Z,90.30
2019-02-21T08:08:11.954Z,90.30
2019-02-21T08:10:40.460Z,90.20
2019-02-21T08:13:08.906Z,89.90
2019-02-21T08:15:37.342Z,90.00
2019-02-21T08:18:05.782Z,89.80
2019-02-21T08:20:53.555Z,89.80
2019-02-21T08:23:22.006Z,89.60
2019-02-21T08:25:50.501Z,89.40
2019-02-21T08:28:18.946Z,89.20
2019-02-21T08:30:47.381Z,89.20
2019-02-21T08:33:17.465Z,89.00
2019-02-21T08:35:46.205Z,88.50
2019-02-21T08:38:14.994Z,87.50
2019-02-21T08:40:43.426Z,87.80
2019-02-21T08:43:11.869Z,87.70
2019-02-21T08:45:40.297Z,87.60
2019-02-21T08:48:08.729Z,86.20
2019-02-21T08:50:37.169Z,86.60
2019-02-21T08:53:05.636Z,86.20
2019-02-21T08:55:34.118Z,85.50
2019-02-21T08:58:02.549Z,85.70
2019-02-21T09:00:31.709Z,85.50
2019-02-21T09:03:00.577Z,85.10
2019-02-21T09:05:29.019Z,85.00
2019-02-21T09:07:57.803Z,84.20
2019-02-21T09:10:27.714Z,84.20
2019-02-21T09:12:56.466Z,84.00
2019-02-21T09:15:24.916Z,84.10
2019-02-21T09:17:54.342Z,83.70
2019-02-21T09:20:23.101Z,83.30
2019-02-21T09:22:51.529Z,83.40
2019-02-21T09:25:20.109Z,83.30
2019-02-21T09:27:48.560Z,82.90
2019-02-21T09:30:18.964Z,83.50
2019-02-21T09:32:47.703Z,81.80
2019-02-21T09:35:16.549Z,82.30
2019-02-21T09:37:45.049Z,82.00
2019-02-21T09:40:14.800Z,81.50
2019-02-21T09:42:43.510Z,81.60
2019-02-21T09:45:15.013Z,82.00
2019-02-21T09:47:43.635Z,81.40
2019-02-21T09:50:12.453Z,80.80
2019-02-21T09:52:40.881Z,81.50
2019-02-21T09:55:11.465Z,80.60
2019-02-21T09:57:39.979Z,81.40
2019-02-21T10:00:14.070Z,80.80
2019-02-21T10:02:42.642Z,80.60
2019-02-21T10:05:11.221Z,80.10
2019-02-21T10:07:39.653Z,80.40
2019-02-21T10:10:11.506Z,79.80
2019-02-21T10:12:39.932Z,79.20
2019-02-21T10:15:13.441Z,79.60
2019-02-21T10:17:41.875Z,78.50
2019-02-21T10:20:22.633Z,78.60
2019-02-21T10:22:51.077Z,78.40
2019-02-21T10:25:24.541Z,78.40
2019-02-21T10:27:52.968Z,76.60
2019-02-21T10:30:23.054Z,77.10
2019-02-21T10:32:51.625Z,77.80
2019-02-21T10:35:20.129Z,77.50
2019-02-21T10:37:48.565Z,77.20
2019-02-21T10:40:17.186Z,77.40
2019-02-21T10:42:45.686Z,75.60
2019-02-21T10:45:22.336Z,75.30
2019-02-21T10:47:50.775Z,75.90
2019-02-21T10:50:21.056Z,76.20
2019-02-21T10:52:49.577Z,76.50
2019-02-21T10:55:19.057Z,75.30
2019-02-21T10:57:47.561Z,75.40
2019-02-21T11:00:26.136Z,75.00
2019-02-21T11:02:54.637Z,73.80
2019-02-21T11:05:23.080Z,73.50
2019-02-21T11:07:51.509Z,73.40
2019-02-21T11:10:23.248Z,73.20
2019-02-21T11:12:51.774Z,72.80
2019-02-21T11:15:22.550Z,72.20
2019-02-21T11:17:50.994Z,71.50
2019-02-21T11:20:20.441Z,72.10
2019-02-21T11:22:48.892Z,71.20
2019-02-21T11:25:17.393Z,71.00
2019-02-21T11:27:46.193Z,67.30
2019-02-21T11:30:19.827Z,65.50
2019-02-21T11:32:48.424Z,67.80
2019-02-21T11:35:17.157Z,66.00
2019-02-21T11:37:47.088Z,64.60
2019-02-21T11:40:17.005Z,63.20
2019-02-21T11:42:45.698Z,63.10
2019-02-21T11:45:18.490Z,64.00
2019-02-21T11:47:47.149Z,64.80
2019-02-21T11:50:17.688Z,65.50
2019-02-21T11:52:46.139Z,64.70
2019-02-21T11:55:25.397Z,63.60
2019-02-21T11:57:53.988Z,65.60
2019-02-21T12:00:30.250Z,64.90
2019-02-21T12:02:58.698Z,64.40
2019-02-21T12:05:31.343Z,67.20
2019-02-21T12:07:57.304Z,65.00
2019-02-21T12:10:25.741Z,62.60
2019-02-21T12:12:54.192Z,63.60
2019-02-21T12:15:22.698Z,61.90
2019-02-21T12:17:51.154Z,63.90
2019-02-21T12:20:20.431Z,62.40
2019-02-21T12:22:48.948Z,63.70
2019-02-21T12:25:21.953Z,62.70
2019-02-21T12:27:50.407Z,63.90
2019-02-21T12:30:19.680Z,63.90
2019-02-21T12:32:48.143Z,64.50
2019-02-21T12:35:16.585Z,63.90
2019-02-21T12:37:45.056Z,63.30
2019-02-21T12:40:23.805Z,61.20
2019-02-21T12:42:52.263Z,61.70
2019-02-21T12:45:25.401Z,63.00
2019-02-21T12:47:54.314Z,63.50
2019-02-21T12:50:23.251Z,62.30
2019-02-21T12:52:51.757Z,63.30
2019-02-21T12:55:28.118Z,62.10
2019-02-21T12:57:50.368Z,61.90
2019-02-21T13:00:22.364Z,61.90
2019-02-21T13:02:51.744Z,61.50
2019-02-21T13:05:41.287Z,62.00
2019-02-21T13:08:08.349Z,61.60
2019-02-21T13:10:36.787Z,61.60
2019-02-21T13:13:05.578Z,60.80
2019-02-21T13:15:34.010Z,60.00
2019-02-21T13:18:02.459Z,61.70
2019-02-21T13:20:30.966Z,60.20
2019-02-21T13:22:59.419Z,61.90
2019-02-21T13:25:27.850Z,62.60
2019-02-21T13:27:56.574Z,62.10
2019-02-21T13:30:25.009Z,60.70
2019-02-21T13:32:53.525Z,60.70
2019-02-21T13:35:22.031Z,61.70
2019-02-21T13:37:50.478Z,60.60
2019-02-21T13:40:21.166Z,60.70
2019-02-21T13:42:49.088Z,61.10
2019-02-21T13:45:18.398Z,61.40
2019-02-21T13:47:46.839Z,62.30
2019-02-21T13:50:19.821Z,61.90
2019-02-21T13:52:48.361Z,62.30
2019-02-21T13:55:16.793Z,62.90
2019-02-21T13:57:45.659Z,62.30
2019-02-21T14:00:16.593Z,64.20
2019-02-21T14:02:45.039Z,63.20
2019-02-21T14:05:14.841Z,63.40
2019-02-21T14:07:43.276Z,63.40
2019-02-21T14:10:28.370Z,62.90
2019-02-21T14:13:01.829Z,63.20
2019-02-21T14:15:45.876Z,63.40
2019-02-21T14:18:21.408Z,63.40
2019-02-21T14:20:49.448Z,63.90
2019-02-21T14:23:17.880Z,63.90
2019-02-21T14:25:46.334Z,65.20
2019-02-21T14:28:14.768Z,64.10
2019-02-21T14:30:43.233Z,63.60
2019-02-21T14:33:11.697Z,64.80
2019-02-21T14:35:40.132Z,64.90
2019-02-21T14:38:08.576Z,64.70
2019-02-21T14:40:37.029Z,64.60
2019-02-21T14:43:05.462Z,64.40
2019-02-21T14:45:33.914Z,65.20
2019-02-21T14:48:02.676Z,65.20
2019-02-21T14:50:31.118Z,65.10
2019-02-21T14:52:59.796Z,64.80
2019-02-21T14:55:30.092Z,65.30
2019-02-21T14:57:58.407Z,64.70
2019-02-21T15:00:28.541Z,65.70
2019-02-21T15:02:57.809Z,65.30
2019-02-21T15:05:26.646Z,64.60
2019-02-21T15:07:55.081Z,65.50
2019-02-21T15:10:23.794Z,64.80
2019-02-21T15:12:52.233Z,66.30
2019-02-21T15:15:25.474Z,66.50
2019-02-21T15:17:53.905Z,66.10
2019-02-21T15:20:22.421Z,66.60
2019-02-21T15:22:50.864Z,66.30
2019-02-21T15:25:19.685Z,67.20
2019-02-21T15:27:48.121Z,67.60
2019-02-21T15:30:22.433Z,67.80
2019-02-21T15:32:50.869Z,68.30
2019-02-21T15:35:19.775Z,68.30
2019-02-21T15:37:48.794Z,68.50
2019-02-21T15:40:17.325Z,68.80
2019-02-21T15:42:46.061Z,69.10
2019-02-21T15:45:23.071Z,69.20
2019-02-21T15:47:47.571Z,69.70
2019-02-21T15:50:16.190Z,70.00
2019-02-21T15:52:45.867Z,70.20
2019-02-21T15:55:16.357Z,70.80
2019-02-21T15:57:44.821Z,70.60
2019-02-21T16:00:18.235Z,70.90
2019-02-21T16:02:46.672Z,71.40
2019-02-21T16:05:15.283Z,71.50
2019-02-21T16:07:43.712Z,71.70
2019-02-21T16:10:21.194Z,72.10
2019-02-21T16:12:50.290Z,72.20
2019-02-21T16:15:20.849Z,72.20
2019-02-21T16:17:49.561Z,72.30
2019-02-21T16:20:19.287Z,72.30
2019-02-21T16:22:48.096Z,72.30
2019-02-21T16:25:19.660Z,72.40
2019-02-21T16:27:48.093Z,72.50
2019-02-21T16:30:16.800Z,72.60
2019-02-21T16:32:45.596Z,72.80
2019-02-21T16:35:14.902Z,72.90
2019-02-21T16:37:43.333Z,72.90
2019-02-21T16:40:16.377Z,73.00
2019-02-21T16:42:44.825Z,73.00
2019-02-21T16:45:15.195Z,73.00
2019-02-21T16:47:44.060Z,73.10
2019-02-21T16:50:14.029Z,73.20
2019-02-21T16:52:42.910Z,73.30
2019-02-21T16:55:19.049Z,73.60
2019-02-21T16:57:47.488Z,73.60
2019-02-21T17:00:21.196Z,73.90
2019-02-21T17:02:49.915Z,74.30
2019-02-21T17:05:18.696Z,74.50
2019-02-21T17:07:47.159Z,74.60
2019-02-21T17:10:16.629Z,74.70
2019-02-21T17:12:45.138Z,74.90
2019-02-21T17:15:17.266Z,75.10
2019-02-21T17:17:45.760Z,75.20
2019-02-21T17:20:22.483Z,75.40
2019-02-21T17:22:50.921Z,75.50
2019-02-21T17:25:19.365Z,75.70
2019-02-21T17:27:50.243Z,75.80
2019-02-21T17:30:19.848Z,75.80
2019-02-21T17:32:48.781Z,75.80
2019-02-21T17:35:23.661Z,76.00
2019-02-21T17:37:56.859Z,76.10
2019-02-21T17:40:39.877Z,76.30
2019-02-21T17:43:10.698Z,76.30
2019-02-21T17:45:39.132Z,76.70
2019-02-21T17:48:07.585Z,77.00
2019-02-21T17:50:36.017Z,77.00
2019-02-21T17:53:04.610Z,77.00
2019-02-21T17:55:33.110Z,77.00
2019-02-21T17:58:01.558Z,77.10
2019-02-21T18:00:34.171Z,77.30
2019-02-21T18:03:22.493Z,77.20
2019-02-21T18:05:50.920Z,77.40
2019-02-21T18:08:19.369Z,77.50
2019-02-21T18:10:47.801Z,77.70
2019-02-21T18:13:16.249Z,77.80
2019-02-21T18:15:44.672Z,78.40
2019-02-21T18:18:13.383Z,78.60
2019-02-21T18:20:41.813Z,78.60
2019-02-21T18:23:12.417Z,78.90
2019-02-21T18:25:49.741Z,78.90
2019-02-21T18:28:18.182Z,78.70
2019-02-21T18:30:46.958Z,78.70
2019-02-21T18:33:15.653Z,78.40
2019-02-21T18:35:44.156Z,79.10
2019-02-21T18:38:12.606Z,79.70
2019-02-21T18:40:41.109Z,79.60
2019-02-21T18:43:09.544Z,79.50
2019-02-21T18:45:37.973Z,79.40
2019-02-21T18:48:06.673Z,79.20
2019-02-21T18:50:38.325Z,79.10
2019-02-21T18:53:05.290Z,79.20
2019-02-21T18:55:33.716Z,79.30
2019-02-21T18:58:02.148Z,79.70
2019-02-21T19:00:30.589Z,79.70
2019-02-21T19:02:59.025Z,79.90
2019-02-21T19:05:35.479Z,79.40
2019-02-21T19:08:04.156Z,79.90
2019-02-21T19:10:27.797Z,80.00
2019-02-21T19:12:56.558Z,80.30
2019-02-21T19:15:26.673Z,80.60
2019-02-21T19:17:55.452Z,80.80
2019-02-21T19:20:23.901Z,81.10
2019-02-21T19:22:52.406Z,81.60
2019-02-21T19:25:20.945Z,81.60
2019-02-21T19:27:49.805Z,82.00
2019-02-21T19:30:32.965Z,82.00
2019-02-21T19:33:01.397Z,82.40
2019-02-21T19:35:29.905Z,82.60
2019-02-21T19:38:09.496Z,82.60
2019-02-21T19:40:28.918Z,82.70
2019-02-21T19:42:57.355Z,82.80
2019-02-21T19:45:25.870Z,83.20
2019-02-21T19:47:54.302Z,83.50
2019-02-21T19:50:22.753Z,84.50
2019-02-21T19:52:51.249Z,83.90
2019-02-21T19:55:19.698Z,84.30
2019-02-21T19:57:48.201Z,84.60
2019-02-21T20:00:26.454Z,85.40
2019-02-21T20:02:55.253Z,85.60
2019-02-21T20:05:23.761Z,85.50
2019-02-21T20:07:52.193Z,85.50
2019-02-21T20:10:21.137Z,86.10
2019-02-21T20:12:49.574Z,86.10
2019-02-21T20:15:18.295Z,85.70
2019-02-21T20:17:46.727Z,85.90
2019-02-21T20:20:26.574Z,85.70
2019-02-21T20:22:55.160Z,85.50
2019-02-21T20:25:24.289Z,85.50
2019-02-21T20:27:52.723Z,85.60
2019-02-21T20:30:21.470Z,85.90
2019-02-21T20:32:49.908Z,85.70
2019-02-21T20:35:18.433Z,86.30
2019-02-21T20:37:46.968Z,86.80
2019-02-21T20:40:15.665Z,86.90
2019-02-21T20:42:44.114Z,86.90
2019-02-21T20:45:13.607Z,87.20
2019-02-21T20:47:42.110Z,87.20
2019-02-21T20:50:12.039Z,87.30
2019-02-21T20:52:40.661Z,87.00
2019-02-21T20:55:10.945Z,88.20
2019-02-21T20:57:39.528Z,88.00
2019-02-21T21:00:11.045Z,87.40
2019-02-21T21:02:39.478Z,87.40
2019-02-21T21:05:08.264Z,87.60
2019-02-21T21:07:36.762Z,87.60
2019-02-21T21:10:09.304Z,87.90
2019-02-21T21:12:37.961Z,88.60
2019-02-21T21:15:09.537Z,87.50
2019-02-21T21:17:38.293Z,87.60
2019-02-21T21:20:16.636Z,87.60
2019-02-21T21:22:42.197Z,87.70
2019-02-21T21:25:15.518Z,87.70
2019-02-21T21:27:44.347Z,88.10
2019-02-21T21:30:17.161Z,87.90
2019-02-21T21:32:45.992Z,87.90
2019-02-21T21:35:14.509Z,87.70
2019-02-21T21:37:43.120Z,87.70
2019-02-21T21:40:16.619Z,87.90
2019-02-21T21:42:45.369Z,88.20
2019-02-21T21:45:17.708Z,88.30
2019-02-21T21:47:46.140Z,88.50
2019-02-21T21:50:17.139Z,88.00
2019-02-21T21:52:45.912Z,88.20
2019-02-21T21:55:15.238Z,88.10
2019-02-21T21:57:44.032Z,88.10
2019-02-21T22:00:23.468Z,89.00
2019-02-21T22:02:52.037Z,88.80
2019-02-21T22:05:20.598Z,89.00
2019-02-21T22:07:49.593Z,88.40
2019-02-21T22:10:18.315Z,89.30
2019-02-21T22:12:47.032Z,89.50
2019-02-21T22:15:21.194Z,89.30
2019-02-21T22:17:49.642Z,89.70
2019-02-21T22:20:18.215Z,89.40
2019-02-21T22:22:46.712Z,89.20
2019-02-21T22:25:15.216Z,89.30
2019-02-21T22:27:43.735Z,89.30
2019-02-21T22:30:14.870Z,89.30
2019-02-21T22:32:43.319Z,89.30
2019-02-21T22:35:11.826Z,89.20
2019-02-21T22:37:40.349Z,88.90
2019-02-21T22:40:11.263Z,89.00
2019-02-21T22:42:39.818Z,89.00
2019-02-21T22:45:09.777Z,89.20
2019-02-21T22:47:38.268Z,89.90
2019-02-21T22:50:15.128Z,89.90
2019-02-21T22:52:43.655Z,89.70
2019-02-21T22:55:12.286Z,89.90
2019-02-21T22:57:40.729Z,89.70
2019-02-21T23:00:31.707Z,90.00
2019-02-21T23:03:01.407Z,90.20
2019-02-21T23:05:52.498Z,90.20
2019-02-21T23:08:42.343Z,90.10
2019-02-21T23:11:10.957Z,90.10
2019-02-21T23:13:39.385Z,90.00
2019-02-21T23:16:07.956Z,90.00
2019-02-21T23:18:36.726Z,90.00
2019-02-21T23:21:05.326Z,90.00
2019-02-21T23:23:34.072Z,90.00
2019-02-21T23:26:02.505Z,90.20
2019-02-21T23:28:31.033Z,90.20
2019-02-21T23:30:59.531Z,90.40
2019-02-21T23:33:28.965Z,90.30
2019-02-21T23:35:58.533Z,90.20
2019-02-21T23:38:26.973Z,90.30
2019-02-21T23:40:55.560Z,90.20
2019-02-21T23:43:24.029Z,90.20
2019-02-21T23:45:52.612Z,90.20
2019-02-21T23:48:21.143Z,90.20
2019-02-21T23:50:49.607Z,90.40
2019-02-21T23:53:18.181Z,90.40
2019-02-21T23:55:46.669Z,90.40
2019-02-21T23:58:15.178Z,90.40
